ADDS METAR Data INFO
IDs: Format: Raw Decoded Include TAF

Data at: 1524 UTC 18 Jun 2018

PAWD 181453Z AUTO 17016G22KT 5SM RA BR BKN045 OVC070 12/10 A2972 RMK AO2 PK WND 19027/1358 SLP064 P0017 60080 T01220100 53005 TSNO $
PAWD 181353Z AUTO 19016G32KT 3SM +RA BR FEW036 BKN047 OVC060 12/12 A2970 RMK AO2 PK WND 17036/1258 SLP057 P0031 T01220117 TSNO $
PAWD 181253Z AUTO 18016G29KT 3SM +RA BR OVC047 13/13 A2970 RMK AO2 PK WND 17040/1208 SLP058 P0032 T01330128 TSNO $
PAWD 181217Z AUTO 18019G40KT 3SM RA BR BKN041 OVC050 13/11 A2970 RMK AO2 PK WND 17040/1208 P0013 T01330111 TSNO $
PAWD 181153Z AUTO 19029G43KT 2SM +RA BR BKN039 OVC047 12/12 A2971 RMK AO2 PK WND 21044/1135 SLP059 P0033 60102 70115 T01170117 10128 20089 55027 TSNO $
PAWD 181135Z AUTO 20032G44KT 2 1/2SM RA BR FEW034 BKN043 OVC055 13/12 A2971 RMK AO2 PK WND 21044/1135 P0019 T01280117 TSNO $
PAWD 181109Z AUTO VRB03KT 4SM RA BR SCT014 BKN046 OVC060 11/11 A2970 RMK AO2 P0005 T01060106 TSNO $
PAWD 181053Z AUTO 00000KT 3SM RA BR BKN016 BKN023 OVC042 10/10 A2970 RMK AO2 SLP058 P0021 T01000100 TSNO $
PAWD 181018Z AUTO 10003KT 3SM RA BR BKN020 BKN027 OVC033 10/10 A2974 RMK AO2 P0007 T01000100 TSNO $
PAWD 181011Z AUTO 00000KT 2 1/2SM RA BR SCT022 BKN027 OVC034 10/10 A2974 RMK AO2 P0005 T01000100 TSNO $
PAWD 181003Z AUTO VRB03KT 3SM RA BR BKN022 BKN029 OVC035 10/09 A2975 RMK AO2 P0002 T01000094 TSNO $
PAWD 180953Z AUTO 00000KT 2SM RA BR BKN024 OVC032 10/10 A2975 RMK AO2 SLP075 P0017 T01000100 TSNO $
PAWD 180941Z AUTO 00000KT 1 1/2SM RA BR BKN025 OVC034 09/09 A2975 RMK AO2 P0013 T00940094 TSNO $
PAWD 180939Z AUTO 00000KT 1 3/4SM RA BR SCT024 OVC031 09/09 A2976 RMK AO2 P0013 T00940094 TSNO $
PAWD 180928Z AUTO 21004KT 1 1/4SM RA BR BKN027 OVC034 10/10 A2977 RMK AO2 P0011 T01000100 TSNO $
PAWD 180921Z AUTO 20004KT 2SM RA BR BKN027 BKN034 OVC043 10/10 A2978 RMK AO2 P0009 T01000100 TSNO $
PAWD 180853Z AUTO 00000KT 4SM RA BR BKN043 OVC050 10/10 A2979 RMK AO2 SLP086 P0012 60031 T01000100 401220089 56027 TSNO $
PAWD 180753Z AUTO 00000KT 5SM -RA BR BKN047 BKN055 OVC065 10/10 A2981 RMK AO2 SLP095 P0010 T01000100 TSNO $
PAWD 180653Z AUTO 16003KT 3SM RA BR SCT035 OVC050 11/11 A2983 RMK AO2 SLP102 P0009 T01060106 TSNO $
PAWD 180638Z AUTO 34005KT 6SM -RA BR SCT006 OVC050 11/11 A2983 RMK AO2 PRESFR P0006 T01060106 TSNO $
PAWD 180619Z AUTO 01005KT 3SM -RA BR SCT002 BKN008 OVC037 10/10 A2985 RMK AO2 P0003 T01000100 TSNO $
PAWD 180609Z AUTO 33004KT 2SM -RA BR BKN002 BKN035 OVC046 09/09 A2986 RMK AO2 P0002 T00940094 TSNO $
PAWD 180605Z AUTO 32003KT 1 1/4SM -RA BR SCT003 BKN033 OVC046 09/09 A2986 RMK AO2 P0002 T00940094 TSNO $
PAWD 180602Z AUTO 00000KT 3/4SM -RA BR SCT003 BKN036 OVC046 09/09 A2986 RMK AO2 P0001 T00940094 TSNO $
PAWD 180553Z AUTO 14003KT 3/4SM -RA BR FEW029 SCT038 OVC050 09/09 A2987 RMK AO2 SLP114 P0002 60009 T00940094 10122 20089 56025 TSNO $
PAWD 180545Z AUTO 18005KT 1 3/4SM -RA BR FEW027 BKN036 OVC049 09/09 A2987 RMK AO2 P0002 T00890089 TSNO $
PAWD 180533Z AUTO 18008KT 3SM -RA BR FEW029 SCT037 OVC050 10/10 A2987 RMK AO2 P0001 T01000100 TSNO $
PAWD 180531Z AUTO 18008KT 1 1/2SM -RA BR FEW031 SCT039 OVC050 09/09 A2987 RMK AO2 P0001 T00940094 TSNO $
PAWD 180517Z AUTO 18006KT 3/4SM -RA BR SCT039 BKN055 OVC065 09/09 A2986 RMK AO2 P0000 T00890089 TSNO $
PAWD 180514Z AUTO 19005KT 1 1/2SM -RA BR SCT039 BKN055 OVC065 10/10 A2986 RMK AO2 VIS 1/2V5 P0000 T01000100 TSNO $
PAWD 180453Z AUTO 00000KT 7SM -RA FEW034 BKN055 OVC065 11/11 A2987 RMK AO2 SLP114 P0004 T01110111 TSNO $
PAWD 180353Z AUTO 00000KT 7SM -RA OVC050 11/11 A2991 RMK AO2 SLP129 P0003 T01110111 TSNO $
PAWD 180253Z AUTO 15003KT 10SM -RA BKN045 OVC055 11/11 A2994 RMK AO2 RAB16 SLP139 P0000 60000 T01060106 58020 TSNO $
PAWD 180224Z AUTO 19004KT 10SM -RA FEW007 OVC046 11/11 A2996 RMK AO2 RAB16 P0000 T01110106 TSNO $
PAWD 180153Z AUTO 29003KT 10SM OVC044 12/12 A2997 RMK AO2 RAB0056E05 SLP148 P0000 T01170117 TSNO $
PAWD 180105Z AUTO 00000KT 9SM SCT025 OVC046 11/11 A2999 RMK AO2 RAB0056E05 P0000 T01110106 TSNO $
PAWD 180053Z AUTO 00000KT 10SM BKN025 OVC048 11/11 A2999 RMK AO2 RAE02B24E44 SLP156 P0000 T01110111 TSNO $
PAWD 180042Z AUTO 00000KT 6SM -RA BR FEW007 BKN025 OVC045 11/11 A2999 RMK AO2 RAE02B24 P0000 T01110106 TSNO $
PAWD 180023Z AUTO 00000KT 6SM BR FEW008 OVC043 11/11 A3000 RMK AO2 RAE02 P0000 T01060106 TSNO $
PAWD 172353Z AUTO 00000KT 5SM -RA BR BKN042 OVC049 11/10 A3000 RMK AO2 RAB41 SLP159 P0001 60001 T01060100 10117 20100 58005 TSNO $
PAWD 172318Z AUTO 19003KT 10SM SCT025 BKN041 OVC049 11/10 A3000 RMK AO2 T01060100 TSNO $
PAWD 172253Z AUTO 00000KT 10SM FEW006 OVC027 11/10 A3000 RMK AO2 RAE19 SLP159 P0000 T01060100 TSNO $
PAWD 172240Z AUTO 23003KT 9SM FEW008 BKN029 OVC035 11/10 A3000 RMK AO2 RAE19 P0000 T01060100 TSNO $
PAWD 172221Z AUTO 00000KT 6SM BR FEW008 BKN012 OVC030 11/10 A3001 RMK AO2 RAE19 P0000 T01060100 TSNO $
PAWD 172153Z AUTO 00000KT 4SM -RA BR OVC013 11/09 A3002 RMK AO2 RAB12 SLP166 P0000 T01060094 TSNO $
PAWD 172134Z AUTO 00000KT 9SM -RA SCT015 SCT022 OVC026 11/09 A3002 RMK AO2 RAB12 P0000 T01110094 TSNO $
PAWD 172111Z AUTO 13006KT 10SM BKN029 OVC039 11/09 A3002 RMK AO2 T01110089 TSNO $
PAWD 172053Z AUTO 13008KT 10SM OVC035 11/09 A3002 RMK AO2 SLP165 T01110094 51007 TSNO $
PAWD 171953Z AUTO 17009KT 10SM OVC041 11/09 A3002 RMK AO2 SLP164 T01060089 TSNO $
PAWD 171853Z AUTO 19011KT 10SM FEW037 OVC046 12/09 A3000 RMK AO2 SLP160 T01170094 TSNO $
PAWD 171753Z AUTO 18012KT 10SM OVC037 10/08 A3000 RMK AO2 SLP158 60003 T01000083 10106 20089 53017 TSNO $
PAWD 171653Z AUTO 18012KT 10SM OVC035 09/08 A2997 RMK AO2 SLP148 T00940083 TSNO $
PAWD 171623Z AUTO 18011KT 10SM SCT026 OVC033 09/08 A2996 RMK AO2 T00940083 TSNO $
PAWD 171553Z AUTO 17010KT 10SM BKN026 OVC033 09/08 A2995 RMK AO2 SLP141 T00890083 TSNO $
PAWD 171540Z AUTO 18009KT 10SM SCT025 OVC031 09/08 A2995 RMK AO2 T00940083 TSNO $
PAWD 171533Z AUTO 18010KT 10SM BKN025 OVC033 09/08 A2995 RMK AO2 T00940083 TSNO $
PAWD 171523Z AUTO 18010KT 10SM SCT025 OVC033 09/08 A2995 RMK AO2 T00940083 TSNO $
PAWD 171453Z AUTO 17008KT 10SM OVC021 09/08 A2995 RMK AO2 SLP141 60003 T00890083 53005 TSNO $
PAWD 171443Z AUTO 17009KT 10SM BKN021 BKN026 OVC030 09/08 A2995 RMK AO2 T00890083 TSNO $
PAWD 171353Z AUTO 18008KT 10SM FEW025 BKN034 OVC043 09/09 A2994 RMK AO2 RAE33 SLP139 P0001 T00940089 TSNO $
PAWD 171302Z AUTO 19011KT 6SM -RA BR SCT027 OVC033 09/09 A2993 RMK AO2 P0000 T00890089 TSNO $
PAWD 171253Z AUTO 19010KT 5SM -RA BR BKN026 OVC033 09/09 A2993 RMK AO2 SLP136 P0002 T00890089 TSNO $
PAWD 171250Z AUTO 19010KT 4SM -RA BR BKN026 OVC033 09/09 A2993 RMK AO2 P0002 TSNO $
PAWD 171231Z AUTO 18014KT 3SM -RA BR FEW007 OVC027 09/09 A2993 RMK AO2 P0001 T00940089 TSNO $
PAWD 171221Z AUTO 18012G20KT 3SM -RA BR FEW007 BKN025 OVC030 09/09 A2993 RMK AO2 P0001 T00940094 TSNO $
PAWD 171202Z AUTO 19013KT 7SM -RA FEW017 BKN024 OVC032 09/09 A2993 RMK AO2 P0000 T00940094 TSNO $
PAWD 171153Z AUTO 18015G23KT 4SM -RA BR FEW024 OVC033 09/09 A2993 RMK AO2 RAB09 SLP135 P0003 60021 70047 T00940094 10100 20094 51013 TSNO $
PAWD 171148Z AUTO 18017G23KT 4SM -RA BR FEW026 OVC032 09/09 A2993 RMK AO2 RAB09 P0002 TSNO $
PAWD 171139Z AUTO 18016G23KT 7SM -RA FEW022 BKN028 OVC036 09/09 A2992 RMK AO2 RAB09 P0002 T00940094 TSNO $
PAWD 171053Z AUTO 20015KT 9SM FEW025 BKN030 OVC046 10/09 A2991 RMK AO2 RAE51 SLP127 P0003 T01000094 TSNO $
PAWD 171037Z AUTO 18016KT 5SM -RA BR BKN028 OVC033 10/10 A2990 RMK AO2 P0003 T01000100 TSNO $
PAWD 170953Z AUTO 19017KT 4SM -RA BR FEW029 OVC036 10/09 A2989 RMK AO2 SLP122 P0003 T01000094 TSNO $
PAWD 170853Z AUTO 19015KT 4SM -RA BR BKN033 OVC046 10/10 A2988 RMK AO2 SLP119 P0005 60012 T01000100 401170078 53014 TSNO $
PAWD 170753Z AUTO 20015KT 6SM -RA BR OVC039 10/09 A2986 RMK AO2 SLP112 P0002 T01000094 TSNO $
PAWD 170653Z AUTO 20014KT 6SM -RA BR OVC032 10/09 A2985 RMK AO2 SLP108 P0005 T01000094 TSNO $
PAWD 170553Z AUTO 20014G20KT 7SM -RA OVC037 10/09 A2984 RMK AO2 SLP105 P0005 60021 T01000094 10106 20100 51005 TSNO $
PAWD 170453Z AUTO 20014KT 6SM -RA BR FEW028 OVC039 10/09 A2984 RMK AO2 SLP105 P0007 T01000094 TSNO $
PAWD 170435Z AUTO 20014G21KT 7SM -RA FEW014 SCT029 OVC037 10/09 A2984 RMK AO2 P0004 T01000094 TSNO $
PAWD 170407Z AUTO 20014KT 8SM -RA BKN018 OVC031 10/09 A2984 RMK AO2 P0001 T01000094 TSNO $
PAWD 170353Z AUTO 20015KT 3SM -RA BR FEW019 BKN037 OVC048 10/09 A2983 RMK AO2 SLP103 P0005 T01000094 TSNO $